Aviation Digital Data Service (ADDS)

Output produced by METARs form (0441 UTC 19 February 2019)
found at http://www.aviationweather.gov/metar/data/
 
Forecast for: PAKN (KING SALMON , AK, US)
Text: PAKN 182336Z 1900/1924 18016KT 6SM BR BKN010 OVC021
Forecast period: 0000 to 0700 UTC 19 February 2019
Forecast type: FROM: standard forecast or significant change
Winds: from the S (180 degrees) at 18 MPH (16 knots; 8.2 m/s)
Visibility: 6 miles (10 km)
Ceiling: 1000 feet AGL
Clouds: broken clouds at 1000 feet AGL
overcast cloud deck at 2100 feet AGL
Weather: BR  (mist)
Text: FM190700 32010KT P6SM SCT007 OVC020
Forecast period: 0700 to 1000 UTC 19 February 2019
Forecast type: FROM: standard forecast or significant change
Winds: from the NW (320 degrees) at 12 MPH (10 knots; 5.1 m/s)
Visibility: 6 or more miles 10+ km)
Ceiling: 2000 feet AGL
Clouds: scattered clouds at 700 feet AGL
overcast cloud deck at 2000 feet AGL
Weather: no significant weather forecast for this period
Text: FM191000 29010KT 1SM BR BKN007
Forecast period: 1000 UTC 19 February 2019 to 0000 UTC 20 February 2019
Forecast type: FROM: standard forecast or significant change
Winds: from the WNW (290 degrees) at 12 MPH (10 knots; 5.1 m/s)
Visibility: 1.00 miles (1.61 km)
Ceiling: 700 feet AGL
Clouds: broken clouds at 700 feet AGL
Weather: BR  (mist)